sensor_id;sensor_type;location;lat;lon;timestamp;P1;durP1;ratioP1;P2;durP2;ratioP2
44452;SDS011;30155;52.164;21.236;2023-03-23T00:01:12;24.70;;;17.40;;
44452;SDS011;30155;52.164;21.236;2023-03-23T00:06:09;25.80;;;17.60;;
44452;SDS011;30155;52.164;21.236;2023-03-23T00:15:59;27.70;;;20.60;;
44452;SDS011;30155;52.164;21.236;2023-03-23T00:20:54;24.40;;;17.80;;
44452;SDS011;30155;52.164;21.236;2023-03-23T00:25:49;28.80;;;18.80;;
44452;SDS011;30155;52.164;21.236;2023-03-23T00:30:43;23.80;;;17.90;;
44452;SDS011;30155;52.164;21.236;2023-03-23T00:35:34;30.10;;;21.30;;
44452;SDS011;30155;52.164;21.236;2023-03-23T00:40:27;26.70;;;20.80;;
44452;SDS011;30155;52.164;21.236;2023-03-23T00:45:19;29.30;;;18.70;;
44452;SDS011;30155;52.164;21.236;2023-03-23T00:50:10;25.90;;;18.00;;
44452;SDS011;30155;52.164;21.236;2023-03-23T00:55:03;27.20;;;19.60;;
44452;SDS011;30155;52.164;21.236;2023-03-23T00:59:55;26.10;;;20.40;;
44452;SDS011;30155;52.164;21.236;2023-03-23T01:04:46;25.70;;;18.00;;
44452;SDS011;30155;52.164;21.236;2023-03-23T01:09:42;32.20;;;20.60;;
44452;SDS011;30155;52.164;21.236;2023-03-23T01:14:36;23.40;;;17.30;;
44452;SDS011;30155;52.164;21.236;2023-03-23T01:19:28;26.90;;;19.50;;
44452;SDS011;30155;52.164;21.236;2023-03-23T01:24:20;30.30;;;21.70;;
44452;SDS011;30155;52.164;21.236;2023-03-23T01:29:12;25.20;;;19.30;;
44452;SDS011;30155;52.164;21.236;2023-03-23T01:34:05;26.70;;;18.60;;
44452;SDS011;30155;52.164;21.236;2023-03-23T01:38:56;27.50;;;20.20;;
44452;SDS011;30155;52.164;21.236;2023-03-23T01:43:56;28.20;;;21.00;;
44452;SDS011;30155;52.164;21.236;2023-03-23T01:48:50;28.60;;;19.30;;
44452;SDS011;30155;52.164;21.236;2023-03-23T01:53:46;30.60;;;21.40;;
44452;SDS011;30155;52.164;21.236;2023-03-23T01:58:43;24.10;;;18.20;;
44452;SDS011;30155;52.164;21.236;2023-03-23T02:03:35;27.40;;;18.60;;
44452;SDS011;30155;52.164;21.236;2023-03-23T02:08:29;25.80;;;18.00;;
44452;SDS011;30155;52.164;21.236;2023-03-23T02:13:24;26.90;;;19.60;;
44452;SDS011;30155;52.164;21.236;2023-03-23T02:18:21;26.70;;;16.90;;
44452;SDS011;30155;52.164;21.236;2023-03-23T02:29:08;21.90;;;17.70;;
44452;SDS011;30155;52.164;21.236;2023-03-23T02:33:59;24.10;;;17.60;;
44452;SDS011;30155;52.164;21.236;2023-03-23T02:39:01;27.60;;;17.20;;
44452;SDS011;30155;52.164;21.236;2023-03-23T02:44:00;25.50;;;17.30;;
44452;SDS011;30155;52.164;21.236;2023-03-23T02:48:54;27.30;;;18.70;;
44452;SDS011;30155;52.164;21.236;2023-03-23T02:53:48;20.20;;;16.50;;
44452;SDS011;30155;52.164;21.236;2023-03-23T02:58:43;26.00;;;19.20;;
44452;SDS011;30155;52.164;21.236;2023-03-23T03:03:35;25.40;;;18.10;;
44452;SDS011;30155;52.164;21.236;2023-03-23T03:08:30;22.50;;;17.50;;
44452;SDS011;30155;52.164;21.236;2023-03-23T03:13:37;24.90;;;17.90;;
44452;SDS011;30155;52.164;21.236;2023-03-23T03:18:47;27.00;;;18.30;;
44452;SDS011;30155;52.164;21.236;2023-03-23T03:23:47;22.50;;;17.50;;
44452;SDS011;30155;52.164;21.236;2023-03-23T03:28:41;24.90;;;18.00;;
44452;SDS011;30155;52.164;21.236;2023-03-23T03:33:38;27.10;;;19.00;;
44452;SDS011;30155;52.164;21.236;2023-03-23T03:38:40;26.30;;;18.10;;
44452;SDS011;30155;52.164;21.236;2023-03-23T03:43:33;25.90;;;18.60;;
44452;SDS011;30155;52.164;21.236;2023-03-23T03:48:28;26.10;;;19.00;;
44452;SDS011;30155;52.164;21.236;2023-03-23T03:53:20;31.40;;;21.00;;
44452;SDS011;30155;52.164;21.236;2023-03-23T03:58:11;26.20;;;20.40;;
44452;SDS011;30155;52.164;21.236;2023-03-23T04:03:32;27.20;;;19.20;;
44452;SDS011;30155;52.164;21.236;2023-03-23T04:08:38;24.00;;;19.00;;
44452;SDS011;30155;52.164;21.236;2023-03-23T04:13:31;26.50;;;19.50;;
44452;SDS011;30155;52.164;21.236;2023-03-23T04:18:40;26.90;;;20.10;;
44452;SDS011;30155;52.164;21.236;2023-03-23T04:23:33;24.80;;;18.80;;
44452;SDS011;30155;52.164;21.236;2023-03-23T04:28:26;25.40;;;19.80;;
44452;SDS011;30155;52.164;21.236;2023-03-23T04:33:48;24.40;;;18.20;;
44452;SDS011;30155;52.164;21.236;2023-03-23T04:38:43;26.10;;;19.10;;
44452;SDS011;30155;52.164;21.236;2023-03-23T04:43:40;27.60;;;19.10;;
44452;SDS011;30155;52.164;21.236;2023-03-23T04:48:48;24.20;;;19.10;;
44452;SDS011;30155;52.164;21.236;2023-03-23T04:53:46;28.20;;;20.70;;
44452;SDS011;30155;52.164;21.236;2023-03-23T04:58:39;27.20;;;19.80;;
44452;SDS011;30155;52.164;21.236;2023-03-23T05:03:33;29.40;;;21.00;;
44452;SDS011;30155;52.164;21.236;2023-03-23T05:08:27;24.40;;;21.00;;
44452;SDS011;30155;52.164;21.236;2023-03-23T05:13:19;30.30;;;22.00;;
44452;SDS011;30155;52.164;21.236;2023-03-23T05:18:13;28.00;;;21.60;;
44452;SDS011;30155;52.164;21.236;2023-03-23T05:23:06;25.10;;;20.50;;
44452;SDS011;30155;52.164;21.236;2023-03-23T05:27:59;32.20;;;22.60;;
44452;SDS011;30155;52.164;21.236;2023-03-23T05:33:14;30.20;;;21.40;;
44452;SDS011;30155;52.164;21.236;2023-03-23T05:38:38;31.70;;;24.40;;
44452;SDS011;30155;52.164;21.236;2023-03-23T05:43:34;33.00;;;24.50;;
44452;SDS011;30155;52.164;21.236;2023-03-23T05:48:41;31.10;;;22.00;;
44452;SDS011;30155;52.164;21.236;2023-03-23T05:53:37;31.50;;;23.70;;
44452;SDS011;30155;52.164;21.236;2023-03-23T05:58:29;31.40;;;23.90;;
44452;SDS011;30155;52.164;21.236;2023-03-23T06:03:21;35.00;;;24.60;;
44452;SDS011;30155;52.164;21.236;2023-03-23T06:08:19;32.00;;;21.10;;
44452;SDS011;30155;52.164;21.236;2023-03-23T06:13:24;29.00;;;22.80;;
44452;SDS011;30155;52.164;21.236;2023-03-23T06:18:19;29.20;;;20.60;;
44452;SDS011;30155;52.164;21.236;2023-03-23T06:23:44;31.30;;;23.60;;
44452;SDS011;30155;52.164;21.236;2023-03-23T06:28:39;28.50;;;19.80;;
44452;SDS011;30155;52.164;21.236;2023-03-23T06:33:31;30.20;;;19.90;;
44452;SDS011;30155;52.164;21.236;2023-03-23T06:38:44;24.00;;;18.60;;
44452;SDS011;30155;52.164;21.236;2023-03-23T06:43:37;22.80;;;18.10;;
44452;SDS011;30155;52.164;21.236;2023-03-23T06:48:43;25.70;;;18.90;;
44452;SDS011;30155;52.164;21.236;2023-03-23T06:53:39;26.60;;;19.50;;
44452;SDS011;30155;52.164;21.236;2023-03-23T06:58:34;19.80;;;15.80;;
44452;SDS011;30155;52.164;21.236;2023-03-23T07:03:27;19.60;;;15.90;;
44452;SDS011;30155;52.164;21.236;2023-03-23T07:08:19;23.10;;;14.40;;
44452;SDS011;30155;52.164;21.236;2023-03-23T07:13:14;16.40;;;13.70;;
44452;SDS011;30155;52.164;21.236;2023-03-23T07:18:13;19.60;;;15.00;;
44452;SDS011;30155;52.164;21.236;2023-03-23T07:23:08;15.60;;;12.30;;
44452;SDS011;30155;52.164;21.236;2023-03-23T07:28:39;16.40;;;13.60;;
44452;SDS011;30155;52.164;21.236;2023-03-23T07:33:50;18.90;;;14.40;;
44452;SDS011;30155;52.164;21.236;2023-03-23T07:38:42;15.60;;;11.80;;
44452;SDS011;30155;52.164;21.236;2023-03-23T07:43:34;14.00;;;11.90;;
44452;SDS011;30155;52.164;21.236;2023-03-23T07:48:34;11.40;;;10.20;;
44452;SDS011;30155;52.164;21.236;2023-03-23T07:53:27;14.60;;;10.90;;
44452;SDS011;30155;52.164;21.236;2023-03-23T07:58:28;12.40;;;10.30;;
44452;SDS011;30155;52.164;21.236;2023-03-23T08:03:20;13.40;;;9.90;;
44452;SDS011;30155;52.164;21.236;2023-03-23T08:08:32;11.10;;;10.00;;
44452;SDS011;30155;52.164;21.236;2023-03-23T08:13:50;11.70;;;10.50;;
44452;SDS011;30155;52.164;21.236;2023-03-23T08:19:18;10.50;;;9.00;;
44452;SDS011;30155;52.164;21.236;2023-03-23T08:24:24;11.70;;;9.80;;
44452;SDS011;30155;52.164;21.236;2023-03-23T08:29:45;8.70;;;7.80;;
44452;SDS011;30155;52.164;21.236;2023-03-23T08:34:56;9.20;;;8.10;;
44452;SDS011;30155;52.164;21.236;2023-03-23T08:40:25;12.00;;;8.20;;
44452;SDS011;30155;52.164;21.236;2023-03-23T08:51:03;10.10;;;6.90;;
44452;SDS011;30155;52.164;21.236;2023-03-23T08:56:16;7.00;;;5.90;;
44452;SDS011;30155;52.164;21.236;2023-03-23T09:01:37;7.20;;;5.80;;
44452;SDS011;30155;52.164;21.236;2023-03-23T09:06:50;7.80;;;6.20;;
44452;SDS011;30155;52.164;21.236;2023-03-23T09:11:42;8.90;;;6.50;;
44452;SDS011;30155;52.164;21.236;2023-03-23T09:16:34;8.20;;;6.10;;
44452;SDS011;30155;52.164;21.236;2023-03-23T09:21:26;7.90;;;7.00;;
44452;SDS011;30155;52.164;21.236;2023-03-23T09:26:19;7.70;;;5.90;;
44452;SDS011;30155;52.164;21.236;2023-03-23T09:31:11;8.40;;;4.90;;
44452;SDS011;30155;52.164;21.236;2023-03-23T09:36:03;6.20;;;5.30;;
44452;SDS011;30155;52.164;21.236;2023-03-23T09:41:03;7.40;;;6.20;;
44452;SDS011;30155;52.164;21.236;2023-03-23T09:46:12;7.30;;;5.40;;
44452;SDS011;30155;52.164;21.236;2023-03-23T09:56:17;10.10;;;6.90;;
44452;SDS011;30155;52.164;21.236;2023-03-23T10:06:21;7.00;;;5.50;;
44452;SDS011;30155;52.164;21.236;2023-03-23T10:16:29;6.40;;;5.70;;
44452;SDS011;30155;52.164;21.236;2023-03-23T10:21:23;9.80;;;6.40;;
44452;SDS011;30155;52.164;21.236;2023-03-23T10:31:28;12.90;;;7.10;;
44452;SDS011;30155;52.164;21.236;2023-03-23T10:51:41;7.60;;;5.90;;
44452;SDS011;30155;52.164;21.236;2023-03-23T11:01:31;7.80;;;4.30;;
44452;SDS011;30155;52.164;21.236;2023-03-23T11:06:27;5.20;;;4.50;;
44452;SDS011;30155;52.164;21.236;2023-03-23T11:11:28;5.50;;;4.40;;
44452;SDS011;30155;52.164;21.236;2023-03-23T11:16:31;6.60;;;4.70;;
44452;SDS011;30155;52.164;21.236;2023-03-23T11:21:25;5.30;;;4.70;;
44452;SDS011;30155;52.164;21.236;2023-03-23T11:31:22;6.20;;;4.20;;
44452;SDS011;30155;52.164;21.236;2023-03-23T11:36:18;4.40;;;3.50;;
44452;SDS011;30155;52.164;21.236;2023-03-23T11:41:18;5.40;;;3.30;;
44452;SDS011;30155;52.164;21.236;2023-03-23T11:51:34;3.70;;;2.70;;
44452;SDS011;30155;52.164;21.236;2023-03-23T11:56:35;2.70;;;2.50;;
44452;SDS011;30155;52.164;21.236;2023-03-23T12:07:01;2.30;;;2.00;;
44452;SDS011;30155;52.164;21.236;2023-03-23T12:38:52;3.00;;;2.70;;
44452;SDS011;30155;52.164;21.236;2023-03-23T12:49:08;3.00;;;2.70;;
44452;SDS011;30155;52.164;21.236;2023-03-23T12:59:00;6.10;;;3.50;;
44452;SDS011;30155;52.164;21.236;2023-03-23T13:03:58;3.60;;;3.30;;
44452;SDS011;30155;52.164;21.236;2023-03-23T13:14:23;5.80;;;3.70;;
44452;SDS011;30155;52.164;21.236;2023-03-23T13:24:19;3.20;;;2.90;;
44452;SDS011;30155;52.164;21.236;2023-03-23T13:29:19;4.60;;;3.10;;
44452;SDS011;30155;52.164;21.236;2023-03-23T13:39:29;2.70;;;2.50;;
44452;SDS011;30155;52.164;21.236;2023-03-23T13:44:25;4.70;;;3.40;;
44452;SDS011;30155;52.164;21.236;2023-03-23T13:49:20;4.30;;;3.20;;
44452;SDS011;30155;52.164;21.236;2023-03-23T13:59:15;7.50;;;3.60;;
44452;SDS011;30155;52.164;21.236;2023-03-23T14:04:19;5.30;;;3.50;;
44452;SDS011;30155;52.164;21.236;2023-03-23T14:09:14;4.80;;;3.60;;
44452;SDS011;30155;52.164;21.236;2023-03-23T14:14:16;5.20;;;3.10;;
44452;SDS011;30155;52.164;21.236;2023-03-23T14:19:21;5.10;;;3.90;;
44452;SDS011;30155;52.164;21.236;2023-03-23T14:24:16;2.90;;;2.50;;
44452;SDS011;30155;52.164;21.236;2023-03-23T14:29:10;4.70;;;2.60;;
44452;SDS011;30155;52.164;21.236;2023-03-23T14:34:04;3.00;;;2.40;;
44452;SDS011;30155;52.164;21.236;2023-03-23T14:39:05;3.80;;;2.50;;
44452;SDS011;30155;52.164;21.236;2023-03-23T14:44:14;4.60;;;2.60;;
44452;SDS011;30155;52.164;21.236;2023-03-23T14:49:10;5.00;;;2.10;;
44452;SDS011;30155;52.164;21.236;2023-03-23T14:54:07;3.50;;;2.40;;
44452;SDS011;30155;52.164;21.236;2023-03-23T14:59:03;3.40;;;2.60;;
44452;SDS011;30155;52.164;21.236;2023-03-23T15:04:01;3.60;;;2.70;;
44452;SDS011;30155;52.164;21.236;2023-03-23T15:08:53;3.80;;;3.00;;
44452;SDS011;30155;52.164;21.236;2023-03-23T15:13:49;4.20;;;3.40;;
44452;SDS011;30155;52.164;21.236;2023-03-23T15:18:48;3.90;;;2.70;;
44452;SDS011;30155;52.164;21.236;2023-03-23T15:23:43;6.20;;;3.20;;
44452;SDS011;30155;52.164;21.236;2023-03-23T15:28:39;3.90;;;3.00;;
44452;SDS011;30155;52.164;21.236;2023-03-23T15:33:38;4.80;;;3.10;;
44452;SDS011;30155;52.164;21.236;2023-03-23T15:38:32;5.20;;;3.20;;
44452;SDS011;30155;52.164;21.236;2023-03-23T15:43:26;2.90;;;2.50;;
44452;SDS011;30155;52.164;21.236;2023-03-23T15:48:22;6.00;;;3.00;;
44452;SDS011;30155;52.164;21.236;2023-03-23T15:53:26;6.30;;;3.60;;
44452;SDS011;30155;52.164;21.236;2023-03-23T15:58:23;4.90;;;4.10;;
44452;SDS011;30155;52.164;21.236;2023-03-23T16:03:29;3.90;;;2.80;;
44452;SDS011;30155;52.164;21.236;2023-03-23T16:13:31;8.00;;;4.30;;
44452;SDS011;30155;52.164;21.236;2023-03-23T16:18:24;4.50;;;3.90;;
44452;SDS011;30155;52.164;21.236;2023-03-23T16:23:16;4.90;;;4.40;;
44452;SDS011;30155;52.164;21.236;2023-03-23T16:28:11;6.30;;;4.40;;
44452;SDS011;30155;52.164;21.236;2023-03-23T16:33:05;5.40;;;3.80;;
44452;SDS011;30155;52.164;21.236;2023-03-23T16:37:58;4.80;;;4.00;;
44452;SDS011;30155;52.164;21.236;2023-03-23T16:42:59;3.60;;;3.20;;
44452;SDS011;30155;52.164;21.236;2023-03-23T16:47:59;6.90;;;3.70;;
44452;SDS011;30155;52.164;21.236;2023-03-23T16:52:52;4.70;;;4.00;;
44452;SDS011;30155;52.164;21.236;2023-03-23T16:57:45;6.90;;;4.30;;
44452;SDS011;30155;52.164;21.236;2023-03-23T17:02:39;4.50;;;3.50;;
44452;SDS011;30155;52.164;21.236;2023-03-23T17:07:33;6.00;;;3.80;;
44452;SDS011;30155;52.164;21.236;2023-03-23T17:12:26;9.10;;;3.70;;
44452;SDS011;30155;52.164;21.236;2023-03-23T17:17:19;6.10;;;3.90;;
44452;SDS011;30155;52.164;21.236;2023-03-23T17:22:12;4.60;;;4.20;;
44452;SDS011;30155;52.164;21.236;2023-03-23T17:27:05;6.90;;;4.40;;
44452;SDS011;30155;52.164;21.236;2023-03-23T17:31:58;5.10;;;4.30;;
44452;SDS011;30155;52.164;21.236;2023-03-23T17:36:51;5.90;;;4.30;;
44452;SDS011;30155;52.164;21.236;2023-03-23T17:41:44;7.20;;;3.50;;
44452;SDS011;30155;52.164;21.236;2023-03-23T17:46:37;6.30;;;3.70;;
44452;SDS011;30155;52.164;21.236;2023-03-23T17:51:30;6.70;;;3.50;;
44452;SDS011;30155;52.164;21.236;2023-03-23T17:56:23;8.00;;;4.30;;
44452;SDS011;30155;52.164;21.236;2023-03-23T18:01:15;6.20;;;5.20;;
44452;SDS011;30155;52.164;21.236;2023-03-23T18:06:08;5.40;;;4.30;;
44452;SDS011;30155;52.164;21.236;2023-03-23T18:11:02;5.40;;;4.30;;
44452;SDS011;30155;52.164;21.236;2023-03-23T18:15:56;6.70;;;4.30;;
44452;SDS011;30155;52.164;21.236;2023-03-23T18:20:53;5.70;;;4.40;;
44452;SDS011;30155;52.164;21.236;2023-03-23T18:25:50;6.20;;;4.20;;
44452;SDS011;30155;52.164;21.236;2023-03-23T18:30:45;5.60;;;4.30;;
44452;SDS011;30155;52.164;21.236;2023-03-23T18:35:39;5.80;;;4.80;;
44452;SDS011;30155;52.164;21.236;2023-03-23T18:40:33;9.50;;;6.90;;
44452;SDS011;30155;52.164;21.236;2023-03-23T18:45:26;10.00;;;6.40;;
44452;SDS011;30155;52.164;21.236;2023-03-23T18:50:19;8.60;;;6.30;;
44452;SDS011;30155;52.164;21.236;2023-03-23T18:55:12;8.80;;;6.40;;
44452;SDS011;30155;52.164;21.236;2023-03-23T19:00:05;9.00;;;6.50;;
44452;SDS011;30155;52.164;21.236;2023-03-23T19:04:58;9.60;;;5.70;;
44452;SDS011;30155;52.164;21.236;2023-03-23T19:09:52;7.60;;;6.00;;
44452;SDS011;30155;52.164;21.236;2023-03-23T19:14:45;8.90;;;5.80;;
44452;SDS011;30155;52.164;21.236;2023-03-23T19:19:38;6.90;;;4.90;;
44452;SDS011;30155;52.164;21.236;2023-03-23T19:24:34;6.00;;;4.00;;
44452;SDS011;30155;52.164;21.236;2023-03-23T19:29:27;5.90;;;4.50;;
44452;SDS011;30155;52.164;21.236;2023-03-23T19:34:20;6.70;;;4.60;;
44452;SDS011;30155;52.164;21.236;2023-03-23T19:39:13;7.10;;;4.30;;
44452;SDS011;30155;52.164;21.236;2023-03-23T19:44:06;5.40;;;4.20;;
44452;SDS011;30155;52.164;21.236;2023-03-23T19:48:59;5.50;;;4.50;;
44452;SDS011;30155;52.164;21.236;2023-03-23T19:53:53;4.40;;;3.50;;
44452;SDS011;30155;52.164;21.236;2023-03-23T19:58:48;5.10;;;3.20;;
44452;SDS011;30155;52.164;21.236;2023-03-23T20:03:41;5.20;;;2.70;;
44452;SDS011;30155;52.164;21.236;2023-03-23T20:08:35;4.70;;;3.20;;
44452;SDS011;30155;52.164;21.236;2023-03-23T20:13:29;7.30;;;3.50;;
44452;SDS011;30155;52.164;21.236;2023-03-23T20:18:23;4.60;;;3.00;;
44452;SDS011;30155;52.164;21.236;2023-03-23T20:23:19;2.90;;;2.30;;
44452;SDS011;30155;52.164;21.236;2023-03-23T20:28:13;3.20;;;2.30;;
44452;SDS011;30155;52.164;21.236;2023-03-23T20:33:07;2.30;;;2.10;;
44452;SDS011;30155;52.164;21.236;2023-03-23T20:38:00;4.00;;;1.90;;
44452;SDS011;30155;52.164;21.236;2023-03-23T20:42:53;3.40;;;2.20;;
44452;SDS011;30155;52.164;21.236;2023-03-23T20:47:48;2.50;;;1.70;;
44452;SDS011;30155;52.164;21.236;2023-03-23T20:52:41;2.30;;;1.70;;
44452;SDS011;30155;52.164;21.236;2023-03-23T20:57:35;2.10;;;1.90;;
44452;SDS011;30155;52.164;21.236;2023-03-23T21:02:30;2.70;;;2.00;;
44452;SDS011;30155;52.164;21.236;2023-03-23T21:07:24;2.30;;;2.10;;
44452;SDS011;30155;52.164;21.236;2023-03-23T21:12:18;4.40;;;2.90;;
44452;SDS011;30155;52.164;21.236;2023-03-23T21:17:12;3.00;;;1.90;;
44452;SDS011;30155;52.164;21.236;2023-03-23T21:22:06;2.60;;;2.30;;
44452;SDS011;30155;52.164;21.236;2023-03-23T21:27:00;3.20;;;2.50;;
44452;SDS011;30155;52.164;21.236;2023-03-23T21:31:53;4.90;;;2.60;;
44452;SDS011;30155;52.164;21.236;2023-03-23T21:36:51;4.80;;;3.10;;
44452;SDS011;30155;52.164;21.236;2023-03-23T21:41:44;3.90;;;2.70;;
44452;SDS011;30155;52.164;21.236;2023-03-23T21:46:40;3.30;;;2.50;;
44452;SDS011;30155;52.164;21.236;2023-03-23T21:51:33;5.30;;;3.20;;
44452;SDS011;30155;52.164;21.236;2023-03-23T21:56:27;4.70;;;3.40;;
44452;SDS011;30155;52.164;21.236;2023-03-23T22:01:20;3.90;;;2.80;;
44452;SDS011;30155;52.164;21.236;2023-03-23T22:06:18;4.20;;;2.90;;
44452;SDS011;30155;52.164;21.236;2023-03-23T22:11:20;3.10;;;2.60;;
44452;SDS011;30155;52.164;21.236;2023-03-23T22:16:15;5.30;;;3.00;;
44452;SDS011;30155;52.164;21.236;2023-03-23T22:21:09;4.60;;;2.50;;
44452;SDS011;30155;52.164;21.236;2023-03-23T22:26:04;3.80;;;2.80;;
44452;SDS011;30155;52.164;21.236;2023-03-23T22:31:02;4.50;;;3.10;;
44452;SDS011;30155;52.164;21.236;2023-03-23T22:35:57;3.40;;;3.10;;
44452;SDS011;30155;52.164;21.236;2023-03-23T22:40:54;3.20;;;2.70;;
44452;SDS011;30155;52.164;21.236;2023-03-23T22:45:49;5.40;;;3.60;;
44452;SDS011;30155;52.164;21.236;2023-03-23T22:50:43;4.50;;;3.60;;
44452;SDS011;30155;52.164;21.236;2023-03-23T22:55:44;5.60;;;4.20;;
44452;SDS011;30155;52.164;21.236;2023-03-23T23:00:44;6.00;;;4.30;;
44452;SDS011;30155;52.164;21.236;2023-03-23T23:05:41;6.60;;;4.40;;
44452;SDS011;30155;52.164;21.236;2023-03-23T23:10:35;6.30;;;4.90;;
44452;SDS011;30155;52.164;21.236;2023-03-23T23:15:28;7.60;;;5.20;;
44452;SDS011;30155;52.164;21.236;2023-03-23T23:20:21;6.30;;;4.80;;
44452;SDS011;30155;52.164;21.236;2023-03-23T23:25:14;8.80;;;5.60;;
44452;SDS011;30155;52.164;21.236;2023-03-23T23:30:07;6.70;;;4.90;;
44452;SDS011;30155;52.164;21.236;2023-03-23T23:35:01;5.80;;;4.70;;
44452;SDS011;30155;52.164;21.236;2023-03-23T23:39:55;6.40;;;4.50;;
44452;SDS011;30155;52.164;21.236;2023-03-23T23:44:47;6.10;;;4.30;;
44452;SDS011;30155;52.164;21.236;2023-03-23T23:49:40;5.00;;;4.50;;
44452;SDS011;30155;52.164;21.236;2023-03-23T23:54:34;6.40;;;4.50;;
44452;SDS011;30155;52.164;21.236;2023-03-23T23:59:28;4.30;;;3.70;;
